createdAt,value
2022-11-08T00:02:26.774Z,100024.78
2022-11-08T00:04:53.626Z,100018.97
2022-11-08T00:07:39.258Z,100021.13
2022-11-08T00:10:25.231Z,100025.28
2022-11-08T00:13:10.864Z,100025.13
2022-11-08T00:15:39.014Z,100016.66
2022-11-08T00:18:07.280Z,100019.81
2022-11-08T00:20:34.934Z,100017.50
2022-11-08T00:23:01.819Z,100016.31
2022-11-08T00:25:28.584Z,100025.13
2022-11-08T00:27:55.457Z,100026.25
2022-11-08T00:30:22.239Z,100030.91
2022-11-08T00:32:48.910Z,100023.63
2022-11-08T00:35:15.911Z,100024.94
2022-11-08T00:37:42.755Z,100032.25
2022-11-08T00:40:10.286Z,100036.72
2022-11-08T00:42:37.204Z,100014.69
2022-11-08T00:45:04.363Z,100045.88
2022-11-08T00:47:31.214Z,100043.38
2022-11-08T00:49:57.979Z,100043.38
2022-11-08T00:52:24.690Z,100035.09
2022-11-08T00:54:51.616Z,100044.84
2022-11-08T00:57:18.418Z,100043.03
2022-11-08T00:59:45.151Z,100045.19
2022-11-08T01:02:11.951Z,100045.34
2022-11-08T01:04:38.760Z,100045.34
2022-11-08T01:07:05.447Z,100039.22
2022-11-08T01:09:32.342Z,100052.31
2022-11-08T01:11:59.165Z,100044.19
2022-11-08T01:14:25.851Z,100054.97
2022-11-08T01:16:52.608Z,100045.69
2022-11-08T01:19:19.507Z,100045.88
2022-11-08T01:21:47.243Z,100048.84
2022-11-08T01:24:14.083Z,100041.22
2022-11-08T01:26:41.014Z,100043.53
2022-11-08T01:29:07.860Z,100028.63
2022-11-08T01:31:34.571Z,100046.69
2022-11-08T01:34:01.568Z,100044.84
2022-11-08T01:36:29.280Z,100035.06
2022-11-08T01:38:58.114Z,100020.16
2022-11-08T01:41:26.508Z,100027.44
2022-11-08T01:43:57.694Z,100010.72
2022-11-08T01:46:33.565Z,100007.22
2022-11-08T01:49:27.298Z,100009.38
2022-11-08T01:52:10.998Z,100011.22
2022-11-08T01:54:59.040Z,100000.75
2022-11-08T01:57:48.101Z,100011.72
2022-11-08T02:00:16.944Z,100015.19
2022-11-08T02:02:46.046Z,99994.47
2022-11-08T02:05:26.047Z,99986.66
2022-11-08T02:07:55.721Z,100009.22
2022-11-08T02:10:29.945Z,99992.66
2022-11-08T02:12:57.368Z,99996.09
2022-11-08T02:15:25.496Z,99995.44
2022-11-08T02:17:54.012Z,99999.09
2022-11-08T02:20:21.249Z,100011.22
2022-11-08T02:23:10.839Z,99989.16
2022-11-08T02:25:37.541Z,99991.66
2022-11-08T02:28:04.475Z,99996.09
2022-11-08T02:30:36.142Z,99987.19
2022-11-08T02:33:23.183Z,99992.31
2022-11-08T02:35:54.955Z,99963.66
2022-11-08T02:38:23.068Z,100001.44
2022-11-08T02:40:51.025Z,99984.84
2022-11-08T02:43:18.379Z,99987.00
2022-11-08T02:45:45.842Z,99981.84
2022-11-08T02:48:13.133Z,99987.97
2022-11-08T02:50:40.649Z,99978.06
2022-11-08T02:53:08.293Z,99973.41
2022-11-08T02:55:35.487Z,99974.56
2022-11-08T02:58:03.126Z,99973.25
2022-11-08T03:00:30.130Z,99966.13
2022-11-08T03:02:58.234Z,99956.81
2022-11-08T03:05:26.854Z,99969.56
2022-11-08T03:07:54.346Z,99954.50
2022-11-08T03:10:22.955Z,99978.19
2022-11-08T03:13:01.495Z,99973.72
2022-11-08T03:15:29.471Z,99977.19
2022-11-08T03:17:57.224Z,99970.03
2022-11-08T03:20:29.563Z,99966.75
2022-11-08T03:23:04.314Z,99982.28
2022-11-08T03:25:31.686Z,99975.00
2022-11-08T03:28:03.060Z,99968.91
2022-11-08T03:30:30.118Z,99976.66
2022-11-08T03:32:56.970Z,99973.00
2022-11-08T03:35:23.735Z,99971.53
2022-11-08T03:37:55.283Z,99966.38
2022-11-08T03:40:23.067Z,99965.72
2022-11-08T03:42:50.366Z,99971.88
2022-11-08T03:45:17.244Z,99970.69
2022-11-08T03:47:46.491Z,99967.06
2022-11-08T03:50:15.452Z,99962.25
2022-11-08T03:52:42.884Z,99970.88
2022-11-08T03:55:13.232Z,99958.28
2022-11-08T03:57:40.860Z,99940.56
2022-11-08T04:00:10.228Z,99954.47
2022-11-08T04:02:37.385Z,99943.38
2022-11-08T04:05:05.468Z,99953.69
2022-11-08T04:07:32.329Z,99950.22
2022-11-08T04:09:59.178Z,99945.72
2022-11-08T04:12:44.224Z,99951.88
2022-11-08T04:15:14.985Z,99961.00
2022-11-08T04:18:05.504Z,99966.13
2022-11-08T04:20:51.412Z,99946.59
2022-11-08T04:23:18.952Z,99951.56
2022-11-08T04:25:45.719Z,99946.91
2022-11-08T04:28:12.492Z,99964.31
2022-11-08T04:30:39.199Z,99962.47
2022-11-08T04:33:07.155Z,99929.69
2022-11-08T04:35:34.150Z,99950.22
2022-11-08T04:38:02.499Z,99946.25
2022-11-08T04:40:31.754Z,99945.72
2022-11-08T04:42:58.615Z,99948.22
2022-11-08T04:45:25.297Z,99952.84
2022-11-08T04:47:52.032Z,99953.69
2022-11-08T04:50:18.816Z,99937.44
2022-11-08T04:52:52.270Z,99930.31
2022-11-08T04:55:19.835Z,99919.72
2022-11-08T04:57:47.131Z,99899.50
2022-11-08T05:00:14.706Z,99851.41
2022-11-08T05:02:41.777Z,99863.03
2022-11-08T05:05:09.757Z,99850.75
2022-11-08T05:07:36.456Z,99833.38
2022-11-08T05:10:03.664Z,99854.59
2022-11-08T05:12:30.397Z,99867.16
2022-11-08T05:14:57.148Z,99862.22
2022-11-08T05:17:23.921Z,99876.97
2022-11-08T05:20:09.454Z,99848.66
2022-11-08T05:22:54.937Z,99865.50
2022-11-08T05:25:21.629Z,99850.13
2022-11-08T05:27:48.324Z,99852.94
2022-11-08T05:30:15.299Z,99887.38
2022-11-08T05:32:42.242Z,99886.09
2022-11-08T05:35:09.133Z,99882.59
2022-11-08T05:37:35.869Z,99886.41
2022-11-08T05:40:02.571Z,99912.22
2022-11-08T05:42:29.550Z,99914.38
2022-11-08T05:44:56.338Z,99908.91
2022-11-08T05:47:23.044Z,99895.97
2022-11-08T05:49:49.785Z,99906.59
2022-11-08T05:52:16.584Z,99921.50
2022-11-08T05:54:43.263Z,99919.50
2022-11-08T05:57:10.026Z,99916.53
2022-11-08T05:59:36.771Z,99910.06
2022-11-08T06:02:03.777Z,99920.31
2022-11-08T06:04:30.707Z,99922.47
2022-11-08T06:06:57.504Z,99918.69
2022-11-08T06:09:24.312Z,99918.16
2022-11-08T06:11:51.052Z,99895.66
2022-11-08T06:14:18.017Z,99859.19
2022-11-08T06:16:44.759Z,99823.06
2022-11-08T06:19:11.446Z,99823.75
2022-11-08T06:21:38.390Z,99857.75
2022-11-08T06:24:05.617Z,99871.06
2022-11-08T06:26:32.380Z,99871.72
2022-11-08T06:28:59.186Z,99864.28
2022-11-08T06:31:25.879Z,99852.19
2022-11-08T06:33:52.697Z,99822.22
2022-11-08T06:36:21.383Z,99731.19
2022-11-08T06:38:48.104Z,99786.47
2022-11-08T06:41:19.620Z,99797.09
2022-11-08T06:43:46.839Z,99844.41
2022-11-08T06:46:13.668Z,99825.34
2022-11-08T06:48:40.583Z,99846.59
2022-11-08T06:51:07.616Z,99846.75
2022-11-08T06:53:34.510Z,99831.50
2022-11-08T06:56:02.205Z,99838.78
2022-11-08T06:58:29.683Z,99825.88
2022-11-08T07:00:56.510Z,99814.94
2022-11-08T07:03:23.241Z,99835.63
2022-11-08T07:05:50.051Z,99855.34
2022-11-08T07:08:22.321Z,99860.31
2022-11-08T07:10:50.234Z,99864.41
2022-11-08T07:13:17.375Z,99874.84
2022-11-08T07:15:45.344Z,99871.03
2022-11-08T07:18:14.457Z,99866.56
2022-11-08T07:20:42.836Z,99856.78
2022-11-08T07:23:10.730Z,99865.09
2022-11-08T07:25:38.392Z,99868.09
2022-11-08T07:28:07.397Z,99846.75
2022-11-08T07:30:35.523Z,99872.59
2022-11-08T07:33:02.819Z,99878.53
2022-11-08T07:35:30.084Z,99871.41
2022-11-08T07:37:57.070Z,99871.53
2022-11-08T07:40:24.216Z,99895.88
2022-11-08T07:43:11.253Z,99936.75
2022-11-08T07:45:38.068Z,99907.13
2022-11-08T07:48:12.025Z,99926.84
2022-11-08T07:50:40.821Z,99911.09
2022-11-08T07:53:07.539Z,99921.00
2022-11-08T07:55:37.187Z,99946.53
2022-11-08T07:58:04.407Z,99958.09
2022-11-08T08:00:31.767Z,99976.78
2022-11-08T08:03:02.261Z,99966.34
2022-11-08T08:05:34.537Z,99969.34
2022-11-08T08:08:02.571Z,100003.78
2022-11-08T08:10:30.681Z,99998.31
2022-11-08T08:12:58.349Z,99997.00
2022-11-08T08:15:25.820Z,99995.66
2022-11-08T08:17:52.852Z,100022.31
2022-11-08T08:20:20.159Z,100034.88
2022-11-08T08:22:48.486Z,100024.09
2022-11-08T08:25:16.158Z,100027.72
2022-11-08T08:27:53.472Z,100037.97
2022-11-08T08:30:20.639Z,100039.25
2022-11-08T08:33:02.169Z,100053.34
2022-11-08T08:35:36.393Z,100065.91
2022-11-08T08:38:04.794Z,100036.00
2022-11-08T08:40:32.464Z,100071.00
2022-11-08T08:43:01.140Z,100067.19
2022-11-08T08:45:28.239Z,100073.00
2022-11-08T08:47:56.982Z,100066.84
2022-11-08T08:50:25.618Z,100064.22
2022-11-08T08:52:52.507Z,100058.59
2022-11-08T08:55:19.420Z,100071.25
2022-11-08T08:57:47.702Z,100042.28
2022-11-08T09:03:04.934Z,100060.72
2022-11-08T09:05:32.690Z,100048.66
2022-11-08T09:07:59.543Z,100057.31
2022-11-08T09:10:27.210Z,100055.66
2022-11-08T09:12:54.369Z,100066.31
2022-11-08T09:15:21.481Z,100054.41
2022-11-08T09:17:48.279Z,100069.34
2022-11-08T09:20:15.167Z,100070.69
2022-11-08T09:22:42.094Z,100062.41
2022-11-08T09:25:10.619Z,100071.19
2022-11-08T09:27:37.374Z,100049.47
2022-11-08T09:30:05.252Z,100075.00
2022-11-08T09:32:54.339Z,100094.75
2022-11-08T09:35:19.515Z,100093.78
2022-11-08T09:37:49.680Z,100092.28
2022-11-08T09:40:33.188Z,100088.28
2022-11-08T09:43:38.196Z,100102.53
2022-11-08T09:46:09.548Z,100096.28
2022-11-08T09:48:40.983Z,100096.09
2022-11-08T09:51:13.079Z,100076.84
2022-11-08T09:53:54.267Z,100072.69
2022-11-08T09:56:38.311Z,100070.72
2022-11-08T09:59:33.704Z,100081.84
2022-11-08T10:02:00.665Z,100084.81
2022-11-08T10:04:33.591Z,100078.34
2022-11-08T10:07:39.151Z,100086.31
2022-11-08T10:10:27.666Z,100080.81
2022-11-08T10:13:38.333Z,100076.03
2022-11-08T10:16:39.556Z,100077.31
2022-11-08T10:19:17.195Z,100043.53
2022-11-08T10:22:05.613Z,100058.94
2022-11-08T10:24:36.836Z,100071.38
2022-11-08T10:27:14.941Z,100063.38
2022-11-08T10:29:44.977Z,100051.63
2022-11-08T10:32:23.337Z,100059.94
2022-11-08T10:34:59.194Z,100060.28
2022-11-08T10:37:27.801Z,100050.50
2022-11-08T10:39:59.669Z,100058.13
2022-11-08T10:42:44.491Z,100057.44
2022-11-08T10:45:11.253Z,100052.16
2022-11-08T10:47:39.534Z,100047.84
2022-11-08T10:50:18.241Z,100037.88
2022-11-08T10:52:52.412Z,100046.34
2022-11-08T10:55:38.597Z,100043.34
2022-11-08T10:58:29.376Z,100046.19
2022-11-08T11:01:01.831Z,100054.63
2022-11-08T11:03:31.322Z,100041.03
2022-11-08T11:06:04.285Z,100044.38
2022-11-08T11:08:31.836Z,100047.66
2022-11-08T11:11:23.758Z,100041.69
2022-11-08T11:14:22.876Z,100046.34
2022-11-08T11:17:07.763Z,100048.00
2022-11-08T11:19:34.978Z,100056.31
2022-11-08T11:22:09.526Z,100047.19
2022-11-08T11:24:46.433Z,100044.03
2022-11-08T11:27:24.157Z,100049.34
2022-11-08T11:30:21.380Z,100026.13
2022-11-08T11:33:25.429Z,100051.66
2022-11-08T11:35:57.837Z,100044.34
2022-11-08T11:38:36.748Z,100039.53
2022-11-08T11:41:37.456Z,100022.47
2022-11-08T11:44:21.952Z,100021.66
2022-11-08T11:46:58.594Z,100018.69
2022-11-08T11:49:29.396Z,100022.81
2022-11-08T11:51:57.083Z,100008.25
2022-11-08T11:54:30.303Z,100009.22
2022-11-08T11:57:01.888Z,100017.16
2022-11-08T11:59:34.648Z,100016.84
2022-11-08T12:02:12.809Z,100027.78
2022-11-08T12:04:39.615Z,100021.63
2022-11-08T12:07:15.461Z,100008.41
2022-11-08T12:10:13.261Z,100011.72
2022-11-08T12:12:45.609Z,100010.38
2022-11-08T12:15:21.287Z,100018.66
2022-11-08T12:17:58.349Z,100010.88
2022-11-08T12:20:43.682Z,100018.34
2022-11-08T12:23:10.367Z,100019.84
2022-11-08T12:26:21.127Z,100014.03
2022-11-08T12:29:12.560Z,100010.38
2022-11-08T12:32:04.677Z,100013.69
2022-11-08T12:34:49.800Z,100013.72
2022-11-08T12:37:35.037Z,100011.88
2022-11-08T12:40:33.925Z,100003.91
2022-11-08T12:43:00.677Z,100005.25
2022-11-08T12:45:36.306Z,99995.00
2022-11-08T12:48:23.783Z,100002.09
2022-11-08T12:51:02.681Z,100010.41
2022-11-08T12:53:54.267Z,100000.44
2022-11-08T12:56:25.587Z,99992.47
2022-11-08T12:58:54.817Z,99985.38
2022-11-08T13:01:23.174Z,99980.91
2022-11-08T13:04:20.367Z,99994.63
2022-11-08T13:06:56.767Z,100001.13
2022-11-08T13:09:44.266Z,100002.59
2022-11-08T13:12:20.240Z,100004.41
2022-11-08T13:14:47.512Z,99992.00
2022-11-08T13:17:26.292Z,99996.97
2022-11-08T13:19:59.562Z,99993.97
2022-11-08T13:22:30.345Z,100004.25
2022-11-08T13:25:27.720Z,99998.47
2022-11-08T13:27:54.674Z,99996.97
2022-11-08T13:30:21.407Z,99996.47
2022-11-08T13:33:00.548Z,99995.31
2022-11-08T13:35:45.957Z,100004.25
2022-11-08T13:39:03.359Z,99981.06
2022-11-08T13:41:30.225Z,99989.50
2022-11-08T13:43:58.952Z,99976.25
2022-11-08T13:46:29.660Z,99988.00
2022-11-08T13:49:05.556Z,99993.13
2022-11-08T13:51:34.096Z,99991.47
2022-11-08T13:54:26.539Z,99989.97
2022-11-08T13:56:57.685Z,99984.53
2022-11-08T13:59:30.699Z,99977.72
2022-11-08T14:01:59.540Z,99972.38
2022-11-08T14:04:40.465Z,99962.75
2022-11-08T14:07:28.029Z,99957.63
2022-11-08T14:10:17.900Z,99948.84
2022-11-08T14:12:55.471Z,99961.34
2022-11-08T14:15:22.346Z,99963.50
2022-11-08T14:18:04.306Z,99958.88
2022-11-08T14:20:43.087Z,99951.38
2022-11-08T14:23:18.850Z,99960.13
2022-11-08T14:26:03.148Z,99961.25
2022-11-08T14:28:33.785Z,99963.19
2022-11-08T14:31:03.793Z,99970.44
2022-11-08T14:33:31.415Z,99976.97
2022-11-08T14:36:08.344Z,99974.44
2022-11-08T14:39:05.800Z,99981.63
2022-11-08T14:41:33.824Z,99977.34
2022-11-08T14:44:02.741Z,99988.25
2022-11-08T14:46:39.411Z,99983.00
2022-11-08T14:49:10.909Z,99975.28
2022-11-08T14:51:38.121Z,99991.56
2022-11-08T14:54:17.274Z,99987.41
2022-11-08T14:56:45.225Z,99990.50
2022-11-08T14:59:13.632Z,99994.16
2022-11-08T15:01:43.941Z,99998.03
2022-11-08T15:04:17.115Z,99990.84
2022-11-08T15:06:47.423Z,100000.28
2022-11-08T15:09:34.069Z,99998.53
2022-11-08T15:12:04.825Z,99993.25
2022-11-08T15:14:35.841Z,100004.56
2022-11-08T15:17:03.867Z,100016.53
2022-11-08T15:19:44.625Z,100014.06
2022-11-08T15:22:30.919Z,100010.91
2022-11-08T15:25:19.468Z,100005.78
2022-11-08T15:27:57.514Z,100007.09
2022-11-08T15:30:30.472Z,100021.50
2022-11-08T15:32:57.344Z,100020.16
2022-11-08T15:35:35.063Z,100014.50
2022-11-08T15:38:05.021Z,100019.75
2022-11-08T15:40:32.599Z,100016.38
2022-11-08T15:43:00.979Z,100018.75
2022-11-08T15:45:32.322Z,100021.22
2022-11-08T15:48:08.230Z,100015.06
2022-11-08T15:50:35.017Z,100018.88
2022-11-08T15:53:03.717Z,100013.06
2022-11-08T15:55:40.207Z,99998.44
2022-11-08T15:58:21.465Z,100015.38
2022-11-08T16:00:49.654Z,100016.34
2022-11-08T16:03:16.387Z,100020.50
2022-11-08T16:05:43.310Z,100019.16
2022-11-08T16:08:10.233Z,100023.19
2022-11-08T16:10:40.402Z,100014.06
2022-11-08T16:13:09.702Z,100018.06
2022-11-08T16:15:38.278Z,100019.16
2022-11-08T16:18:05.066Z,100018.03
2022-11-08T16:20:36.413Z,100023.53
2022-11-08T16:23:05.877Z,100027.25
2022-11-08T16:25:49.195Z,100002.91
2022-11-08T16:28:22.172Z,100017.97
2022-11-08T16:30:49.060Z,100035.56
2022-11-08T16:33:27.589Z,100017.66
2022-11-08T16:35:55.757Z,100028.13
2022-11-08T16:38:29.282Z,100030.97
2022-11-08T16:40:56.056Z,100038.00
2022-11-08T16:43:22.748Z,100030.34
2022-11-08T16:46:06.968Z,100044.47
2022-11-08T16:48:36.761Z,100030.56
2022-11-08T16:51:06.398Z,100035.69
2022-11-08T16:53:35.454Z,100044.50
2022-11-08T16:56:02.208Z,100051.13
2022-11-08T16:58:29.096Z,100052.97
2022-11-08T17:00:57.313Z,100050.50
2022-11-08T17:03:26.077Z,100051.31
2022-11-08T17:05:54.181Z,100056.81
2022-11-08T17:08:21.945Z,100059.09
2022-11-08T17:10:48.878Z,100059.09
2022-11-08T17:13:18.092Z,100053.63
2022-11-08T17:15:45.437Z,100055.13
2022-11-08T17:18:14.708Z,100061.44
2022-11-08T17:20:41.848Z,100060.25
2022-11-08T17:23:09.232Z,100068.72
2022-11-08T17:25:40.017Z,100065.41
2022-11-08T17:28:07.730Z,100059.78
2022-11-08T17:30:35.420Z,100069.38
2022-11-08T17:33:02.212Z,100058.94
2022-11-08T17:35:28.972Z,100076.38
2022-11-08T17:37:56.260Z,100042.72
2022-11-08T17:40:23.168Z,100078.00
2022-11-08T17:42:49.856Z,100077.84
2022-11-08T17:45:16.575Z,100087.28
2022-11-08T17:47:43.463Z,100084.81
2022-11-08T17:50:10.509Z,100081.31
2022-11-08T17:52:37.645Z,100083.31
2022-11-08T17:55:04.953Z,100074.19
2022-11-08T17:57:31.639Z,100099.91
2022-11-08T17:59:58.482Z,100088.94
2022-11-08T18:02:27.624Z,100089.94
2022-11-08T18:04:55.007Z,100096.75
2022-11-08T18:07:21.860Z,100102.38
2022-11-08T18:09:48.787Z,100114.78
2022-11-08T18:12:15.803Z,100109.47
2022-11-08T18:14:42.549Z,100114.94
2022-11-08T18:17:09.404Z,100113.78
2022-11-08T18:19:37.343Z,100109.97
2022-11-08T18:22:04.851Z,100118.41
2022-11-08T18:24:31.928Z,100127.34
2022-11-08T18:26:58.914Z,100125.22
2022-11-08T18:29:25.653Z,100129.00
2022-11-08T18:31:52.566Z,100130.81
2022-11-08T18:34:19.755Z,100142.25
2022-11-08T18:36:49.000Z,100148.22
2022-11-08T18:39:19.466Z,100132.94
2022-11-08T18:41:46.315Z,100133.47
2022-11-08T18:44:12.999Z,100144.72
2022-11-08T18:46:43.151Z,100149.84
2022-11-08T18:49:10.445Z,100150.47
2022-11-08T18:51:37.159Z,100153.31
2022-11-08T18:54:04.115Z,100144.69
2022-11-08T18:56:30.897Z,100152.81
2022-11-08T18:58:57.716Z,100159.63
2022-11-08T19:01:24.768Z,100146.31
2022-11-08T19:03:51.513Z,100161.09
2022-11-08T19:06:19.497Z,100156.09
2022-11-08T19:08:46.435Z,100170.69
2022-11-08T19:11:14.561Z,100166.53
2022-11-08T19:13:41.779Z,100157.91
2022-11-08T19:16:15.178Z,100176.50
2022-11-08T19:18:43.061Z,100166.72
2022-11-08T19:21:18.963Z,100168.41
2022-11-08T19:23:46.547Z,100162.25
2022-11-08T19:26:19.201Z,100125.88
2022-11-08T19:28:46.755Z,100178.03
2022-11-08T19:31:15.555Z,100177.06
2022-11-08T19:33:42.347Z,100184.38
2022-11-08T19:36:13.223Z,100174.22
2022-11-08T19:38:40.562Z,100181.91
2022-11-08T19:41:12.573Z,100185.19
2022-11-08T19:43:41.227Z,100177.75
2022-11-08T19:46:11.823Z,100187.19
2022-11-08T19:48:40.853Z,100190.34
2022-11-08T19:51:13.755Z,100182.88
2022-11-08T19:53:41.282Z,100185.69
2022-11-08T19:56:10.657Z,100192.31
2022-11-08T19:58:38.626Z,100186.97
2022-11-08T20:01:18.194Z,100208.03
2022-11-08T20:03:51.424Z,100206.03
2022-11-08T20:06:20.801Z,100207.03
2022-11-08T20:09:00.518Z,100206.50
2022-11-08T20:11:30.521Z,100215.19
2022-11-08T20:13:58.709Z,100206.72
2022-11-08T20:16:30.355Z,100202.16
2022-11-08T20:19:02.637Z,100183.09
2022-11-08T20:21:32.152Z,100220.59
2022-11-08T20:24:05.975Z,100216.94
2022-11-08T20:26:34.926Z,100223.63
2022-11-08T20:29:01.676Z,100228.41
2022-11-08T20:31:28.706Z,100225.59
2022-11-08T20:33:56.183Z,100233.25
2022-11-08T20:36:25.187Z,100233.44
2022-11-08T20:38:59.900Z,100233.63
2022-11-08T20:41:30.115Z,100234.63
2022-11-08T20:43:59.831Z,100229.63
2022-11-08T20:46:26.636Z,100239.09
2022-11-08T20:49:00.356Z,100237.09
2022-11-08T20:51:29.271Z,100237.94
2022-11-08T20:53:57.144Z,100237.44
2022-11-08T20:56:24.882Z,100237.91
2022-11-08T20:58:52.686Z,100234.03
2022-11-08T21:01:25.217Z,100235.47
2022-11-08T21:03:52.843Z,100228.13
2022-11-08T21:06:24.446Z,100242.22
2022-11-08T21:09:01.929Z,100248.38
2022-11-08T21:11:34.733Z,100231.41
2022-11-08T21:14:02.514Z,100229.13
2022-11-08T21:16:33.104Z,100243.06
2022-11-08T21:19:05.570Z,100253.66
2022-11-08T21:21:33.269Z,100237.69
2022-11-08T21:24:00.148Z,100258.16
2022-11-08T21:26:27.162Z,100250.66
2022-11-08T21:28:54.081Z,100253.47
2022-11-08T21:31:20.897Z,100252.00
2022-11-08T21:33:48.013Z,100251.50
2022-11-08T21:36:15.552Z,100262.44
2022-11-08T21:38:42.247Z,100261.44
2022-11-08T21:41:11.036Z,100262.63
2022-11-08T21:43:39.826Z,100273.06
2022-11-08T21:46:20.592Z,100270.56
2022-11-08T21:48:52.773Z,100255.47
2022-11-08T21:51:19.503Z,100270.56
2022-11-08T21:53:54.113Z,100262.91
2022-11-08T21:56:22.870Z,100269.44
2022-11-08T21:58:49.639Z,100275.06
2022-11-08T22:01:16.967Z,100277.19
2022-11-08T22:03:43.827Z,100281.19
2022-11-08T22:06:10.592Z,100286.31
2022-11-08T22:08:37.387Z,100294.78
2022-11-08T22:11:04.218Z,100298.03
2022-11-08T22:13:30.965Z,100301.69
2022-11-08T22:15:57.714Z,100304.13
2022-11-08T22:18:36.749Z,100290.78
2022-11-08T22:21:28.562Z,100312.81
2022-11-08T22:23:55.511Z,100274.84
2022-11-08T22:26:22.278Z,100299.75
2022-11-08T22:28:49.070Z,100315.34
2022-11-08T22:31:16.057Z,100315.25
2022-11-08T22:33:42.815Z,100294.75
2022-11-08T22:36:09.781Z,100315.72
2022-11-08T22:38:36.566Z,100320.72
2022-11-08T22:41:03.391Z,100315.09
2022-11-08T22:43:30.212Z,100305.63
2022-11-08T22:45:56.975Z,100310.09
2022-11-08T22:48:23.818Z,100318.44
2022-11-08T22:50:50.563Z,100322.06
2022-11-08T22:53:17.706Z,100321.06
2022-11-08T22:55:45.266Z,100315.53
2022-11-08T22:58:12.810Z,100314.84
2022-11-08T23:00:40.680Z,100322.25
2022-11-08T23:03:07.535Z,100329.41
2022-11-08T23:05:34.247Z,100325.59
2022-11-08T23:08:01.016Z,100330.19
2022-11-08T23:10:27.854Z,100315.22
2022-11-08T23:13:13.252Z,100320.31
2022-11-08T23:15:58.917Z,100318.59
2022-11-08T23:18:27.455Z,100294.25
2022-11-08T23:21:13.208Z,100327.97
2022-11-08T23:23:58.758Z,100308.03
2022-11-08T23:27:01.300Z,100318.44
2022-11-08T23:29:46.304Z,100319.56
2022-11-08T23:32:13.227Z,100314.09
2022-11-08T23:34:39.929Z,100328.34
2022-11-08T23:37:06.677Z,100320.53
2022-11-08T23:39:33.494Z,100326.97
2022-11-08T23:42:19.070Z,100322.19
2022-11-08T23:44:45.869Z,100317.19
2022-11-08T23:47:12.572Z,100329.06
2022-11-08T23:49:39.292Z,100320.13
2022-11-08T23:52:06.084Z,100333.13
2022-11-08T23:54:32.809Z,100308.69
2022-11-08T23:56:59.931Z,100326.03
2022-11-08T23:59:26.812Z,100332.38
